Time;durP1;ratioP1;P1;durP2;ratioP2;P2;SDS_P1;SDS_P2;PMS_P1;PMS_P2;Temp;Humidity;BMP_temperature;BMP_pressure;BME280_temperature;BME280_humidity;BME280_pressure;Samples;Min_cycle;Max_cycle;Signal;HPM_P1;HPM_P2
2022/05/20 00:02:01;;;;;;;4.53;1.83;;;15.30;99.90;;;;;;5047829;28;20021;-88
2022/05/20 00:04:27;;;;;;;3.15;1.50;;;15.30;99.90;;;;;;5044052;28;20033;-88
2022/05/20 00:06:53;;;;;;;3.42;1.35;;;15.30;99.90;;;;;;5043278;28;20032;-88
2022/05/20 00:09:19;;;;;;;3.03;1.58;;;15.30;99.90;;;;;;5045162;28;20044;-89
2022/05/20 00:11:45;;;;;;;3.58;1.80;;;15.30;99.90;;;;;;5024781;28;20026;-89
2022/05/20 00:14:11;;;;;;;2.90;1.45;;;15.30;99.90;;;;;;5037956;28;20029;-89
2022/05/20 00:16:36;;;;;;;3.47;1.63;;;15.20;99.90;;;;;;5040668;28;20373;-90
2022/05/20 00:19:04;;;;;;;1.67;1.58;;;15.20;99.90;;;;;;5044647;28;20037;-87
2022/05/20 00:21:31;;;;;;;2.95;1.60;;;15.20;99.90;;;;;;5043738;28;20040;-86
2022/05/20 00:24:00;;;;;;;3.42;1.50;;;15.20;99.90;;;;;;5027646;28;20029;-88
2022/05/20 00:26:26;;;;;;;3.67;1.50;;;15.20;99.90;;;;;;5048288;28;20032;-88
2022/05/20 00:28:53;;;;;;;3.13;1.60;;;15.20;99.90;;;;;;5040673;28;20108;-89
2022/05/20 00:31:24;;;;;;;7.70;1.52;;;15.20;99.90;;;;;;5040424;28;20017;-88
2022/05/20 00:33:50;;;;;;;2.83;1.48;;;15.20;99.90;;;;;;5042681;28;20033;-89
2022/05/20 00:36:16;;;;;;;2.47;1.75;;;15.20;99.90;;;;;;5042203;28;20031;-87
2022/05/20 00:38:42;;;;;;;2.55;1.52;;;15.20;99.90;;;;;;5023781;28;20033;-92
2022/05/20 00:41:09;;;;;;;2.33;1.42;;;15.20;99.90;;;;;;5052068;28;20037;-88
2022/05/20 00:43:41;;;;;;;3.53;1.40;;;15.30;99.90;;;;;;5020104;28;20444;-87
2022/05/20 00:46:20;;;;;;;2.58;1.50;;;15.30;99.90;;;;;;5023617;28;20060;-86
2022/05/20 00:48:56;;;;;;;2.05;1.40;;;15.20;99.90;;;;;;5037317;28;20500;-86
2022/05/20 00:51:35;;;;;;;2.55;1.60;;;15.20;99.90;;;;;;5041552;28;20025;-86
2022/05/20 00:54:16;;;;;;;1.58;1.48;;;15.20;99.90;;;;;;5038010;28;20614;-85
2022/05/20 00:56:55;;;;;;;4.55;1.70;;;15.20;99.90;;;;;;5026827;28;20052;-89
2022/05/20 00:59:27;;;;;;;3.90;1.40;;;15.20;99.90;;;;;;5033806;28;20399;-88
2022/05/20 01:01:57;;;;;;;3.40;1.33;;;15.20;99.90;;;;;;5042491;28;20056;-88
2022/05/20 01:04:23;;;;;;;1.80;1.40;;;15.20;99.90;;;;;;5043415;28;20052;-88
2022/05/20 01:06:50;;;;;;;1.88;1.60;;;15.20;99.90;;;;;;5018603;28;20071;-89
2022/05/20 01:09:15;;;;;;;5.90;1.80;;;15.20;99.90;;;;;;5035198;28;20395;-88
2022/05/20 01:11:41;;;;;;;2.63;1.50;;;15.20;99.90;;;;;;5041228;28;20021;-88
2022/05/20 01:14:08;;;;;;;5.28;1.80;;;15.20;99.90;;;;;;5037981;28;20033;-87
2022/05/20 01:16:37;;;;;;;3.20;1.58;;;15.10;99.90;;;;;;5039359;28;20079;-87
2022/05/20 01:19:07;;;;;;;2.17;1.40;;;15.10;99.90;;;;;;5044270;28;20032;-88
2022/05/20 01:21:33;;;;;;;2.85;1.35;;;15.10;99.90;;;;;;5027825;28;20029;-88
2022/05/20 01:24:00;;;;;;;3.03;1.50;;;15.10;99.90;;;;;;5040328;28;20028;-88
2022/05/20 01:26:26;;;;;;;4.88;1.60;;;15.10;99.90;;;;;;5022328;28;20438;-89
2022/05/20 01:28:51;;;;;;;2.53;1.50;;;15.10;99.90;;;;;;5024076;28;20035;-89
2022/05/20 01:31:18;;;;;;;3.67;1.27;;;15.10;99.90;;;;;;5043641;28;20029;-88
2022/05/20 01:33:49;;;;;;;1.50;1.40;;;15.00;99.90;;;;;;5039004;28;20037;-87
2022/05/20 01:36:20;;;;;;;2.88;1.65;;;15.00;99.90;;;;;;5046736;28;20108;-86
2022/05/20 01:38:49;;;;;;;5.05;1.60;;;15.00;99.90;;;;;;5038950;28;20106;-87
2022/05/20 01:41:42;;;;;;;4.15;1.63;;;15.00;99.90;;;;;;5041787;28;20025;-87
2022/05/20 01:44:35;;;;;;;1.80;1.55;;;14.90;99.90;;;;;;5034774;28;20029;-87
2022/05/20 01:47:18;;;;;;;1.63;1.50;;;14.90;99.90;;;;;;5038198;28;20487;-87
2022/05/20 01:50:06;;;;;;;2.58;1.50;;;14.90;99.90;;;;;;5029976;28;20083;-87
2022/05/20 01:52:32;;;;;;;2.38;1.50;;;14.90;99.90;;;;;;5029318;28;20026;-89
2022/05/20 01:55:24;;;;;;;2.10;1.50;;;14.80;99.90;;;;;;5032386;28;20444;-91
2022/05/20 01:58:15;;;;;;;2.60;1.52;;;14.80;99.90;;;;;;5035913;28;20503;-89
2022/05/20 02:00:43;;;;;;;1.65;1.55;;;14.80;99.90;;;;;;5046068;28;20044;-89
2022/05/20 02:03:14;;;;;;;2.40;1.58;;;14.80;99.90;;;;;;5038177;28;20043;-90
2022/05/20 02:05:52;;;;;;;2.17;1.92;;;14.80;99.90;;;;;;5044156;28;20021;-89
2022/05/20 02:08:35;;;;;;;3.83;1.40;;;14.80;99.90;;;;;;5040981;28;20018;-88
2022/05/20 02:11:30;;;;;;;4.18;1.63;;;14.80;99.90;;;;;;5025277;28;20404;-88
2022/05/20 02:14:08;;;;;;;3.88;1.70;;;14.80;99.90;;;;;;5038417;28;20063;-88
2022/05/20 02:16:39;;;;;;;4.25;1.40;;;14.80;99.90;;;;;;5035455;28;20026;-89
2022/05/20 02:19:20;;;;;;;2.38;1.85;;;14.80;99.90;;;;;;5039616;28;20060;-88
2022/05/20 02:21:51;;;;;;;2.72;1.60;;;14.70;99.90;;;;;;5039795;28;20025;-88
2022/05/20 02:24:21;;;;;;;5.53;1.70;;;14.80;99.90;;;;;;5025988;28;20030;-89
2022/05/20 02:27:08;;;;;;;2.28;1.58;;;14.70;99.90;;;;;;5040190;28;20029;-89
2022/05/20 02:29:42;;;;;;;3.45;1.60;;;14.70;99.90;;;;;;5017063;28;20022;-89
2022/05/20 02:32:18;;;;;;;3.78;1.52;;;14.70;99.90;;;;;;5042189;28;20064;-91
2022/05/20 02:34:44;;;;;;;5.68;1.52;;;14.70;99.90;;;;;;5047328;28;20079;-88
2022/05/20 02:37:24;;;;;;;2.15;1.38;;;14.70;99.90;;;;;;5049854;28;20430;-89
2022/05/20 02:39:50;;;;;;;2.53;1.73;;;14.60;99.90;;;;;;5021217;28;20069;-89
2022/05/20 02:42:16;;;;;;;4.80;1.48;;;14.60;99.90;;;;;;5040309;28;20021;-89
2022/05/20 02:44:42;;;;;;;1.85;1.60;;;14.60;99.90;;;;;;5038911;28;20037;-91
2022/05/20 02:47:08;;;;;;;2.78;1.60;;;14.70;99.90;;;;;;5035809;28;20017;-90
2022/05/20 02:49:35;;;;;;;5.97;1.38;;;14.60;99.90;;;;;;5048743;28;20077;-91
2022/05/20 02:52:01;;;;;;;2.03;1.40;;;14.60;99.90;;;;;;5039835;28;20021;-91
2022/05/20 02:54:26;;;;;;;4.15;1.48;;;14.60;99.90;;;;;;5041162;28;20026;-91
2022/05/20 02:56:52;;;;;;;3.67;1.30;;;14.60;99.90;;;;;;5039133;28;20619;-90
2022/05/20 03:04:47;;;;;;;2.90;1.55;;;14.60;99.90;;;;;;5046848;28;20525;-90
2022/05/20 03:07:13;;;;;;;2.67;1.52;;;14.60;99.90;;;;;;5047422;28;20112;-89
2022/05/20 03:09:40;;;;;;;4.93;1.50;;;14.70;99.90;;;;;;5034384;28;20115;-90
2022/05/20 03:12:06;;;;;;;1.48;1.30;;;14.60;99.90;;;;;;5048840;28;20434;-88
2022/05/20 03:14:32;;;;;;;1.55;1.42;;;14.60;99.90;;;;;;5050285;28;20029;-89
2022/05/20 03:17:02;;;;;;;2.95;1.45;;;14.60;99.90;;;;;;5049516;28;20030;-88
2022/05/20 03:19:30;;;;;;;6.30;1.60;;;14.60;99.90;;;;;;5048356;28;20076;-90
2022/05/20 03:22:03;;;;;;;4.88;1.60;;;14.60;99.90;;;;;;5046919;28;20025;-89
2022/05/20 03:24:29;;;;;;;4.50;1.52;;;14.60;99.90;;;;;;5047766;28;20025;-89
2022/05/20 03:26:56;;;;;;;2.10;1.23;;;14.60;99.90;;;;;;5047401;28;20033;-86
2022/05/20 03:29:22;;;;;;;1.35;1.17;;;14.50;99.90;;;;;;5052183;28;20194;-88
2022/05/20 03:31:48;;;;;;;2.47;1.50;;;14.60;99.90;;;;;;5042624;28;20034;-89
2022/05/20 03:34:14;;;;;;;5.80;1.58;;;14.60;99.90;;;;;;5037884;28;20036;-89
2022/05/20 03:36:45;;;;;;;3.45;1.50;;;14.60;99.90;;;;;;5042070;28;20026;-90
2022/05/20 03:39:14;;;;;;;2.67;1.45;;;14.60;99.90;;;;;;5049580;28;20564;-90
2022/05/20 03:41:41;;;;;;;3.33;1.30;;;14.60;99.90;;;;;;5047102;28;20025;-91
2022/05/20 03:44:09;;;;;;;2.17;1.50;;;14.60;99.90;;;;;;5038489;28;20026;-90
2022/05/20 03:46:46;;;;;;;4.80;1.67;;;14.60;99.90;;;;;;5043567;28;20025;-89
2022/05/20 03:49:13;;;;;;;1.67;1.50;;;14.60;99.90;;;;;;5046518;28;20044;-90
2022/05/20 03:51:40;;;;;;;3.10;1.92;;;14.60;99.90;;;;;;5045752;28;20037;-88
2022/05/20 03:54:06;;;;;;;1.75;1.40;;;14.60;99.90;;;;;;5046112;28;20032;-89
2022/05/20 03:56:32;;;;;;;2.00;1.50;;;14.60;99.90;;;;;;5044057;28;20031;-88
2022/05/20 03:58:58;;;;;;;5.63;1.40;;;14.60;99.90;;;;;;5044270;28;20459;-89
2022/05/20 04:04:08;;;;;;;2.88;1.60;;;14.70;99.90;;;;;;5038337;28;20036;-90
2022/05/20 04:06:34;;;;;;;3.67;1.40;;;14.70;99.90;;;;;;5036384;28;20034;-88
2022/05/20 04:09:00;;;;;;;3.22;1.42;;;14.70;99.90;;;;;;5037997;28;20025;-91
2022/05/20 04:11:27;;;;;;;3.47;1.70;;;14.70;99.90;;;;;;5041350;28;20021;-90
2022/05/20 04:13:53;;;;;;;6.63;1.60;;;14.70;99.90;;;;;;5024566;28;20116;-89
2022/05/20 04:16:19;;;;;;;3.15;1.63;;;14.80;99.90;;;;;;5040701;28;20546;-89
2022/05/20 04:18:45;;;;;;;4.03;1.55;;;14.80;99.90;;;;;;5041149;28;20034;-89
2022/05/20 04:21:13;;;;;;;4.47;1.38;;;14.80;99.90;;;;;;5039199;28;20033;-90
2022/05/20 04:23:40;;;;;;;2.67;1.90;;;14.90;99.90;;;;;;5044254;28;20059;-90
2022/05/20 04:26:06;;;;;;;3.88;1.60;;;14.90;99.90;;;;;;5041203;28;20021;-89
2022/05/20 04:28:33;;;;;;;2.15;1.20;;;15.00;99.90;;;;;;5043973;28;20021;-90
2022/05/20 04:31:02;;;;;;;2.13;1.40;;;15.00;99.90;;;;;;5043106;28;20100;-90
2022/05/20 04:33:29;;;;;;;1.63;1.52;;;15.00;99.90;;;;;;5042664;28;20025;-89
2022/05/20 04:35:54;;;;;;;2.65;1.50;;;15.10;99.90;;;;;;5035483;28;20021;-89
2022/05/20 04:38:21;;;;;;;3.35;1.35;;;15.10;99.90;;;;;;5036353;28;20032;-88
2022/05/20 04:46:56;;;;;;;3.30;1.80;;;15.20;99.90;;;;;;5035771;28;20476;-89
2022/05/20 04:49:08;;;;;;;3.63;1.42;;;15.50;99.90;;;;;;5036949;28;20040;-89
2022/05/20 04:51:34;;;;;;;6.05;1.75;;;15.60;99.90;;;;;;5038534;28;20407;-90
2022/05/20 04:56:45;;;;;;;2.63;1.85;;;15.70;99.90;;;;;;5035768;28;20079;-90
2022/05/20 04:59:12;;;;;;;5.10;1.50;;;15.80;99.90;;;;;;5019060;28;20480;-90
2022/05/20 05:01:37;;;;;;;2.90;1.80;;;15.90;99.90;;;;;;5035805;28;20120;-89
2022/05/20 05:04:03;;;;;;;6.55;2.33;;;15.90;99.90;;;;;;5036020;28;20105;-89
2022/05/20 05:06:29;;;;;;;2.78;1.63;;;16.00;99.90;;;;;;5033913;28;20021;-89
2022/05/20 05:08:55;;;;;;;3.08;1.55;;;16.10;99.90;;;;;;5034550;28;20029;-90
2022/05/20 05:11:21;;;;;;;4.15;1.98;;;16.10;99.90;;;;;;5039062;28;20022;-90
2022/05/20 05:13:46;;;;;;;3.30;1.92;;;16.20;99.90;;;;;;5038709;28;20033;-89
2022/05/20 05:16:12;;;;;;;3.20;1.50;;;16.30;99.90;;;;;;5016507;28;20479;-90
2022/05/20 05:18:38;;;;;;;2.22;1.80;;;16.30;99.90;;;;;;5022016;28;20507;-89
2022/05/20 05:21:04;;;;;;;6.55;1.30;;;16.40;99.90;;;;;;5044403;28;20109;-89
2022/05/20 05:23:31;;;;;;;3.28;1.75;;;16.50;99.90;;;;;;5040846;28;20544;-89
2022/05/20 05:25:57;;;;;;;3.03;1.70;;;16.60;99.90;;;;;;5035909;28;20026;-89
2022/05/20 05:28:26;;;;;;;2.05;1.70;;;16.60;99.90;;;;;;5034989;28;20071;-90
2022/05/20 05:30:52;;;;;;;2.83;1.17;;;16.70;99.90;;;;;;5045588;28;20036;-88
2022/05/20 05:33:19;;;;;;;3.67;1.55;;;16.80;99.90;;;;;;5042927;28;20028;-89
2022/05/20 05:35:45;;;;;;;3.53;1.48;;;16.80;99.90;;;;;;5030748;28;20053;-90
2022/05/20 05:38:11;;;;;;;2.92;1.50;;;16.90;99.90;;;;;;5040820;28;20076;-89
2022/05/20 05:40:41;;;;;;;5.13;1.67;;;17.00;99.90;;;;;;5035901;28;20045;-89
2022/05/20 05:43:07;;;;;;;3.60;1.77;;;17.10;99.90;;;;;;5042393;28;20017;-89
2022/05/20 05:45:34;;;;;;;3.78;1.60;;;17.20;99.90;;;;;;5036530;28;20110;-89
2022/05/20 05:48:03;;;;;;;4.20;1.63;;;17.40;99.90;;;;;;5017057;28;20028;-90
2022/05/20 05:50:30;;;;;;;7.75;1.77;;;17.40;99.90;;;;;;5038092;28;20475;-89
2022/05/20 05:52:57;;;;;;;5.72;1.60;;;17.50;99.90;;;;;;5036672;28;20020;-90
2022/05/20 05:55:24;;;;;;;14.32;2.38;;;17.60;99.90;;;;;;5039707;28;20369;-89
2022/05/20 05:57:50;;;;;;;14.15;1.98;;;17.70;99.90;;;;;;5038790;28;20029;-86
2022/05/20 06:00:16;;;;;;;9.27;1.63;;;17.80;99.90;;;;;;5039973;28;20037;-87
2022/05/20 06:02:41;;;;;;;2.63;1.58;;;17.80;99.90;;;;;;5023913;28;20036;-87
2022/05/20 06:05:08;;;;;;;6.45;1.98;;;17.90;99.90;;;;;;5026439;28;20028;-87
2022/05/20 06:07:33;;;;;;;5.45;1.92;;;18.10;99.90;;;;;;5040440;28;20484;-92
2022/05/20 06:09:59;;;;;;;5.80;2.10;;;18.20;99.90;;;;;;5038193;28;20043;-85
2022/05/20 06:12:25;;;;;;;7.72;1.98;;;18.30;99.90;;;;;;5040799;28;20453;-84
2022/05/20 06:14:50;;;;;;;7.45;2.33;;;18.40;99.90;;;;;;5029674;28;20068;-86
2022/05/20 06:17:16;;;;;;;5.20;1.70;;;18.50;99.90;;;;;;5038183;28;20080;-88
2022/05/20 06:19:42;;;;;;;17.17;2.10;;;18.60;99.90;;;;;;5030955;28;20033;-89
2022/05/20 06:22:09;;;;;;;12.65;1.90;;;18.70;99.90;;;;;;5040379;28;20025;-88
2022/05/20 06:24:35;;;;;;;5.40;1.67;;;18.80;99.90;;;;;;5044265;28;20097;-88
2022/05/20 06:27:02;;;;;;;8.38;2.05;;;18.90;99.90;;;;;;5017670;28;20022;-88
2022/05/20 06:29:27;;;;;;;14.18;2.17;;;19.00;99.90;;;;;;5021239;28;20034;-87
2022/05/20 06:31:53;;;;;;;17.23;2.00;;;19.20;99.90;;;;;;5023234;28;20079;-88
2022/05/20 06:34:19;;;;;;;9.35;2.25;;;19.30;99.90;;;;;;5036237;28;20499;-89
2022/05/20 06:41:54;;;;;;;3.15;1.40;;;19.60;99.90;;;;;;5043278;28;20025;-89
2022/05/20 06:44:21;;;;;;;5.63;2.03;;;19.70;99.90;;;;;;5016564;28;20029;-88
2022/05/20 06:46:51;;;;;;;3.85;2.08;;;19.80;99.90;;;;;;5039222;28;20032;-89
2022/05/20 06:49:16;;;;;;;4.90;1.90;;;19.90;99.90;;;;;;5037235;28;20400;-87
2022/05/20 06:51:42;;;;;;;9.50;1.98;;;20.00;99.90;;;;;;5040186;28;20041;-89
2022/05/20 06:54:10;;;;;;;4.32;1.60;;;20.10;99.90;;;;;;5035582;28;20703;-89
2022/05/20 06:56:36;;;;;;;9.73;2.05;;;20.20;99.90;;;;;;5035713;28;20041;-88
2022/05/20 06:59:04;;;;;;;4.18;1.73;;;20.30;99.90;;;;;;5044711;28;20021;-87
2022/05/20 07:01:30;;;;;;;16.83;2.50;;;20.50;99.90;;;;;;5035313;28;20066;-88
2022/05/20 07:03:56;;;;;;;13.10;2.45;;;20.60;99.90;;;;;;5042111;28;20499;-88
2022/05/20 07:06:23;;;;;;;12.45;2.35;;;20.70;99.90;;;;;;5035801;28;20029;-88
2022/05/20 07:08:50;;;;;;;5.93;2.40;;;20.80;99.90;;;;;;5037443;28;20403;-88
2022/05/20 07:11:24;;;;;;;3.85;2.15;;;21.00;99.90;;;;;;5040037;28;20047;-87
2022/05/20 07:13:55;;;;;;;9.77;2.05;;;21.00;99.90;;;;;;5040183;28;20550;-88
2022/05/20 07:16:22;;;;;;;4.80;1.85;;;21.10;99.90;;;;;;5042084;28;20441;-88
2022/05/20 07:18:47;;;;;;;6.07;2.15;;;21.30;99.90;;;;;;5038003;28;20124;-87
2022/05/20 07:21:14;;;;;;;5.38;2.00;;;21.30;99.90;;;;;;5041642;28;20033;-88
2022/05/20 07:23:39;;;;;;;7.13;2.50;;;21.40;99.90;;;;;;5042176;28;20029;-89
2022/05/20 07:26:06;;;;;;;4.03;1.88;;;21.40;99.90;;;;;;5038707;28;20582;-88
2022/05/20 07:28:32;;;;;;;9.50;2.80;;;21.40;99.90;;;;;;5039635;28;20032;-87
2022/05/20 07:30:58;;;;;;;3.30;1.90;;;21.40;99.90;;;;;;5042224;28;20445;-88
2022/05/20 07:33:25;;;;;;;12.38;2.10;;;21.40;99.90;;;;;;5036418;28;20353;-88
2022/05/20 07:35:51;;;;;;;4.28;1.92;;;21.40;99.90;;;;;;5035845;28;20040;-87
2022/05/20 07:38:16;;;;;;;7.82;2.22;;;21.40;99.90;;;;;;5036618;28;20025;-86
2022/05/20 07:40:43;;;;;;;6.82;1.98;;;21.40;99.90;;;;;;5041784;28;20049;-86
2022/05/20 07:43:09;;;;;;;6.05;2.40;;;21.50;99.90;;;;;;5040848;28;20024;-85
2022/05/20 07:45:35;;;;;;;4.45;2.55;;;21.50;99.90;;;;;;5041938;28;20025;-85
2022/05/20 07:48:01;;;;;;;18.08;2.28;;;21.30;99.90;;;;;;5037490;28;20025;-88
2022/05/20 07:50:27;;;;;;;11.45;2.30;;;21.30;99.90;;;;;;5017948;28;20103;-87
2022/05/20 07:55:43;;;;;;;4.88;2.50;;;21.00;99.90;;;;;;5040951;28;20688;-86
2022/05/20 07:58:12;;;;;;;8.23;2.13;;;21.00;99.90;;;;;;5020702;28;20492;-87
2022/05/20 08:00:39;;;;;;;4.95;2.08;;;21.10;99.90;;;;;;5042238;28;20045;-85
2022/05/20 08:03:07;;;;;;;9.25;2.20;;;21.20;99.90;;;;;;5036751;28;20117;-85
2022/05/20 08:05:35;;;;;;;5.68;1.92;;;21.20;99.90;;;;;;5026899;28;20048;-86
2022/05/20 08:08:05;;;;;;;7.18;2.35;;;21.20;99.90;;;;;;5037268;28;20017;-86
2022/05/20 08:10:33;;;;;;;5.30;2.10;;;21.30;99.90;;;;;;5024840;28;20039;-87
2022/05/20 08:13:00;;;;;;;6.22;2.30;;;21.30;99.90;;;;;;5039520;28;20056;-87
2022/05/20 08:15:26;;;;;;;16.80;2.90;;;21.30;99.90;;;;;;5044372;28;20070;-86
2022/05/20 08:17:52;;;;;;;5.20;2.20;;;21.50;99.90;;;;;;5037794;28;20049;-87
2022/05/20 08:20:22;;;;;;;4.72;2.13;;;21.50;99.90;;;;;;5035168;28;20111;-87
2022/05/20 08:22:51;;;;;;;6.80;2.60;;;21.50;99.90;;;;;;5035856;28;20021;-84
2022/05/20 08:25:17;;;;;;;8.77;2.95;;;21.60;99.90;;;;;;5041579;28;20052;-85
2022/05/20 08:27:43;;;;;;;13.63;2.83;;;21.70;99.90;;;;;;5040286;28;20049;-86
2022/05/20 08:30:13;;;;;;;9.93;2.92;;;21.70;99.90;;;;;;5019473;28;20040;-86
2022/05/20 08:32:39;;;;;;;9.07;2.83;;;21.80;99.90;;;;;;5037283;28;20032;-85
2022/05/20 08:35:05;;;;;;;6.68;2.67;;;21.80;99.90;;;;;;5033691;28;20033;-85
2022/05/20 08:37:33;;;;;;;8.05;2.58;;;21.70;99.90;;;;;;5038051;28;20389;-86
2022/05/20 08:40:00;;;;;;;6.03;2.15;;;21.80;99.90;;;;;;5038940;28;20051;-85
2022/05/20 08:42:30;;;;;;;4.03;2.28;;;21.70;99.90;;;;;;5033433;28;20021;-84
2022/05/20 08:44:57;;;;;;;8.57;2.60;;;21.70;99.90;;;;;;5038999;28;20193;-85
2022/05/20 08:47:46;;;;;;;6.25;2.47;;;21.70;99.90;;;;;;5039087;28;20072;-85
2022/05/20 08:50:29;;;;;;;10.82;2.38;;;21.80;99.90;;;;;;5038256;28;20057;-85
2022/05/20 08:52:56;;;;;;;5.40;2.45;;;21.80;99.90;;;;;;5037316;28;20134;-87
2022/05/20 08:55:22;;;;;;;9.85;2.33;;;21.90;99.90;;;;;;5017510;28;20029;-84
2022/05/20 08:57:58;;;;;;;6.03;2.53;;;21.80;99.90;;;;;;5017335;28;20053;-87
2022/05/20 09:00:24;;;;;;;6.18;2.80;;;21.80;99.90;;;;;;5016966;28;20487;-88
2022/05/20 09:02:50;;;;;;;4.07;2.30;;;21.70;99.90;;;;;;5035532;28;20108;-88
2022/05/20 09:05:21;;;;;;;10.55;2.83;;;21.70;99.90;;;;;;5033106;28;20025;-88
2022/05/20 09:08:19;;;;;;;5.25;2.78;;;21.80;99.90;;;;;;5034968;28;20075;-93
2022/05/20 09:10:49;;;;;;;8.43;2.15;;;21.80;99.90;;;;;;5006495;28;20113;-90
2022/05/20 09:16:14;;;;;;;11.25;2.70;;;22.10;99.90;;;;;;5035023;28;20607;-89
2022/05/20 09:18:43;;;;;;;4.03;2.22;;;21.80;99.90;;;;;;5033837;28;20032;-88
2022/05/20 09:21:33;;;;;;;8.65;2.80;;;22.00;99.90;;;;;;5026424;28;20260;-85
2022/05/20 09:24:03;;;;;;;4.90;2.15;;;21.90;99.90;;;;;;5028733;28;20049;-89
2022/05/20 09:26:41;;;;;;;6.82;2.47;;;22.10;99.90;;;;;;5031173;28;20578;-87
2022/05/20 09:29:16;;;;;;;6.63;2.10;;;22.20;99.90;;;;;;5036445;28;20048;-88
2022/05/20 09:31:58;;;;;;;7.22;2.45;;;22.20;99.90;;;;;;5032763;28;20080;-89
2022/05/20 09:34:26;;;;;;;4.75;2.38;;;22.10;99.90;;;;;;5029695;28;20112;-90
2022/05/20 09:37:10;;;;;;;4.35;2.17;;;22.20;99.90;;;;;;5032853;28;20029;-88
2022/05/20 09:39:42;;;;;;;11.38;2.45;;;22.30;99.90;;;;;;5033958;28;20037;-89
2022/05/20 09:42:27;;;;;;;11.00;2.22;;;22.40;99.90;;;;;;5038574;28;20021;-88
2022/05/20 09:45:04;;;;;;;4.45;2.30;;;22.50;99.90;;;;;;5011652;28;20033;-85
2022/05/20 09:47:43;;;;;;;6.95;2.30;;;22.60;99.90;;;;;;5037904;28;20029;-87
2022/05/20 09:50:31;;;;;;;7.20;2.55;;;22.70;99.90;;;;;;5034764;28;20132;-87
2022/05/20 09:53:26;;;;;;;4.97;2.10;;;22.80;99.90;;;;;;5038964;28;20026;-87
2022/05/20 09:56:22;;;;;;;4.78;2.13;;;22.70;99.90;;;;;;5006997;28;20383;-86
2022/05/20 09:59:22;;;;;;;6.90;2.45;;;22.60;99.90;;;;;;5031798;28;20080;-85
2022/05/20 10:02:11;;;;;;;5.07;2.40;;;22.60;99.90;;;;;;5031913;28;20061;-86
2022/05/20 10:04:57;;;;;;;6.00;2.50;;;22.60;99.90;;;;;;5003367;28;20152;-84
2022/05/20 10:07:47;;;;;;;5.68;2.33;;;22.50;99.90;;;;;;5014344;28;20411;-85
2022/05/20 10:10:42;;;;;;;5.03;2.30;;;22.50;99.90;;;;;;5032455;28;20083;-86
2022/05/20 10:13:34;;;;;;;4.65;2.45;;;22.60;99.90;;;;;;5021300;28;20032;-85
2022/05/20 10:16:28;;;;;;;9.25;2.63;;;22.60;99.90;;;;;;4982597;28;20037;-86
2022/05/20 10:19:18;;;;;;;4.20;2.00;;;22.60;99.90;;;;;;5035845;28;20017;-86
2022/05/20 10:22:10;;;;;;;8.60;2.13;;;22.60;99.90;;;;;;5032435;28;20119;-86
2022/05/20 10:24:57;;;;;;;7.82;2.40;;;22.60;99.90;;;;;;5032512;28;20520;-86
2022/05/20 10:27:40;;;;;;;5.95;2.33;;;22.50;99.90;;;;;;5037286;28;20022;-86
2022/05/20 10:33:04;;;;;;;7.82;2.22;;;22.80;99.90;;;;;;5036131;28;20075;-87
2022/05/20 10:35:54;;;;;;;6.15;2.22;;;23.00;99.90;;;;;;5036657;28;20468;-86
2022/05/20 10:38:41;;;;;;;5.90;2.08;;;23.10;99.90;;;;;;5038263;28;20105;-87
2022/05/20 10:41:10;;;;;;;5.65;2.17;;;23.30;99.90;;;;;;5014517;28;20064;-85
2022/05/20 10:49:55;;;;;;;9.77;2.20;;;23.30;99.90;;;;;;5042303;28;20103;-86
2022/05/20 10:52:53;;;;;;;5.72;2.13;;;23.40;99.90;;;;;;5020151;28;20694;-87
2022/05/20 10:55:37;;;;;;;8.57;2.75;;;23.50;99.90;;;;;;5030160;28;20017;-86
2022/05/20 10:58:22;;;;;;;3.53;1.92;;;23.60;99.90;;;;;;5037960;28;20413;-87
2022/05/20 11:00:50;;;;;;;5.60;2.33;;;23.50;99.90;;;;;;5011186;28;20034;-83
2022/05/20 11:03:22;;;;;;;4.82;2.17;;;23.60;99.90;;;;;;5037817;28;20026;-84
2022/05/20 11:06:16;;;;;;;5.35;2.33;;;23.60;99.90;;;;;;5036897;28;20079;-83
2022/05/20 11:09:03;;;;;;;7.03;2.55;;;23.70;99.90;;;;;;5023315;28;20220;-88
2022/05/20 11:12:00;;;;;;;5.60;3.03;;;23.90;99.90;;;;;;5039350;28;20551;-89
2022/05/20 11:14:57;;;;;;;3.85;2.00;;;23.60;99.90;;;;;;5036215;28;20022;-91
2022/05/20 11:17:59;;;;;;;6.50;2.47;;;23.40;99.90;;;;;;5038430;28;20053;-92
2022/05/20 11:21:06;;;;;;;5.85;2.40;;;23.40;99.90;;;;;;5036233;28;20029;-87
2022/05/20 11:23:55;;;;;;;5.85;1.95;;;23.30;99.90;;;;;;5042031;28;20120;-89
2022/05/20 11:26:32;;;;;;;4.30;2.33;;;23.20;99.90;;;;;;5039598;28;20075;-86
2022/05/20 11:29:18;;;;;;;5.00;2.40;;;23.10;99.90;;;;;;5048824;28;20082;-93
2022/05/20 11:32:07;;;;;;;12.88;2.50;;;23.10;99.90;;;;;;5013915;28;20083;-84
2022/05/20 11:34:55;;;;;;;10.35;2.88;;;23.20;99.90;;;;;;5037976;28;20026;-88
2022/05/20 11:37:36;;;;;;;8.57;2.70;;;23.30;99.90;;;;;;5041816;28;20025;-79
2022/05/20 11:40:40;;;;;;;9.80;2.88;;;23.40;99.90;;;;;;5040777;28;20124;-88
2022/05/20 11:43:23;;;;;;;4.47;2.20;;;23.50;99.90;;;;;;5050137;28;20632;-87
2022/05/20 11:46:07;;;;;;;4.65;2.20;;;23.30;99.90;;;;;;5002655;28;20120;-93
2022/05/20 11:48:50;;;;;;;13.48;2.92;;;23.40;99.90;;;;;;5044912;28;20028;-86
2022/05/20 11:51:24;;;;;;;8.57;2.75;;;23.60;99.90;;;;;;5041205;28;20499;-86
2022/05/20 11:54:33;;;;;;;7.63;2.30;;;23.40;99.90;;;;;;5034984;28;20029;-82
2022/05/20 11:57:13;;;;;;;3.70;2.03;;;23.30;99.90;;;;;;5041957;28;20027;-83
2022/05/20 11:59:44;;;;;;;5.28;2.20;;;23.80;99.90;;;;;;5040914;28;20040;-82
2022/05/20 12:02:17;;;;;;;7.30;2.20;;;26.40;99.90;;;;;;5041383;28;20476;-82
2022/05/20 12:04:44;;;;;;;5.10;2.28;;;28.80;99.90;;;;;;5043133;28;20064;-92
2022/05/20 12:07:20;;;;;;;3.58;1.63;;;30.00;99.90;;;;;;5042632;28;20028;-93
2022/05/20 12:09:51;;;;;;;10.05;2.28;;;30.20;99.90;;;;;;5039901;28;20029;-92
2022/05/20 12:12:27;;;;;;;9.45;2.67;;;30.10;99.90;;;;;;5027383;28;20400;-89
2022/05/20 12:15:22;;;;;;;4.57;1.95;;;29.30;99.90;;;;;;5044222;28;20030;-92
2022/05/20 12:17:50;;;;;;;5.22;2.00;;;30.00;99.60;;;;;;5044697;28;20522;-92
2022/05/20 12:25:53;;;;;;;3.50;1.90;;;30.40;98.30;;;;;;5033421;28;20037;-85
2022/05/20 12:28:21;;;;;;;8.55;2.25;;;30.10;98.50;;;;;;5039258;28;20025;-82
2022/05/20 12:31:13;;;;;;;4.80;2.00;;;31.30;98.70;;;;;;5021755;28;20029;-82
2022/05/20 12:34:05;;;;;;;4.18;1.98;;;31.60;97.90;;;;;;5033607;28;20036;-83
2022/05/20 12:36:35;;;;;;;7.72;1.98;;;31.60;97.70;;;;;;5032153;28;20037;-84
2022/05/20 12:39:06;;;;;;;4.30;2.00;;;31.90;98.10;;;;;;5036839;28;20112;-84
2022/05/20 12:41:33;;;;;;;6.85;2.22;;;32.80;97.00;;;;;;5038426;28;20550;-83
2022/05/20 12:44:21;;;;;;;4.03;1.70;;;33.60;98.00;;;;;;5037232;28;20021;-83
2022/05/20 12:47:08;;;;;;;3.35;1.77;;;34.10;96.70;;;;;;5036178;28;20434;-84
2022/05/20 12:49:42;;;;;;;5.47;1.73;;;33.80;96.00;;;;;;5028243;28;20065;-82
2022/05/20 12:52:17;;;;;;;5.10;2.08;;;32.90;95.60;;;;;;5035342;28;20029;-83
2022/05/20 12:54:52;;;;;;;6.15;1.80;;;33.20;95.00;;;;;;5033838;28;20064;-84
2022/05/20 12:57:26;;;;;;;3.78;2.00;;;32.80;94.60;;;;;;5038450;28;20048;-83
2022/05/20 12:59:58;;;;;;;4.63;1.75;;;33.90;92.30;;;;;;5037619;28;20033;-82
2022/05/20 13:02:29;;;;;;;5.10;1.80;;;34.20;90.90;;;;;;5038752;28;20024;-82
2022/05/20 13:05:00;;;;;;;2.95;2.00;;;33.30;91.30;;;;;;5036069;28;20017;-84
2022/05/20 13:07:26;;;;;;;4.82;1.90;;;33.10;91.50;;;;;;5035253;28;20025;-87
2022/05/20 13:09:52;;;;;;;4.43;1.75;;;34.30;90.30;;;;;;5044009;28;20032;-83
2022/05/20 13:12:21;;;;;;;5.47;1.90;;;34.90;88.60;;;;;;5034382;28;20017;-83
2022/05/20 13:15:05;;;;;;;4.30;2.00;;;34.00;84.70;;;;;;5031924;28;20021;-83
2022/05/20 13:17:32;;;;;;;5.00;1.90;;;33.10;86.40;;;;;;5034634;28;20119;-83
2022/05/20 13:19:59;;;;;;;5.68;2.00;;;32.50;86.80;;;;;;5032752;28;20128;-82
2022/05/20 13:22:28;;;;;;;7.45;2.00;;;33.10;90.10;;;;;;5035823;28;20610;-83
2022/05/20 13:25:06;;;;;;;3.45;1.92;;;33.10;87.30;;;;;;5030528;28;20116;-82
2022/05/20 13:27:34;;;;;;;4.95;2.00;;;33.20;89.50;;;;;;5037432;28;20027;-83
2022/05/20 13:30:20;;;;;;;7.70;2.30;;;33.90;85.40;;;;;;5033363;28;20346;-83
2022/05/20 13:32:46;;;;;;;5.22;2.00;;;34.50;85.00;;;;;;5030933;28;20021;-82
2022/05/20 13:35:11;;;;;;;6.97;1.90;;;34.40;82.80;;;;;;5041882;28;20021;-82
2022/05/20 13:37:40;;;;;;;4.85;2.13;;;33.40;81.90;;;;;;5017537;28;20033;-82
2022/05/20 13:40:12;;;;;;;5.57;2.08;;;33.00;85.50;;;;;;5034509;28;20069;-82
2022/05/20 13:42:40;;;;;;;3.90;2.00;;;33.20;87.40;;;;;;5039774;28;20030;-82
2022/05/20 13:45:12;;;;;;;5.53;2.10;;;33.70;84.70;;;;;;5022929;28;20154;-86
2022/05/20 13:50:26;;;;;;;3.55;1.90;;;34.40;85.10;;;;;;5036009;28;20044;-82
2022/05/20 13:52:57;;;;;;;2.97;1.90;;;35.10;83.10;;;;;;5040207;28;20029;-82
2022/05/20 13:55:28;;;;;;;4.15;1.85;;;34.60;82.50;;;;;;5016078;28;20026;-82
2022/05/20 13:57:54;;;;;;;11.68;2.67;;;33.40;84.90;;;;;;5039374;28;20047;-82